Terminal Aerodrome Forecast
Issued by NWS

Home | Current Version | Previous Version | Text Only | Print | Product List | Glossary Off
Versions: 1 2 3 4 5 6 7 8 9 10 11 12 13 14

455
FTUS43 KGRB 081738
TAFATW
TAF
KATW 081738Z 0818/0918 27011KT 6SM -SN OVC017
      TEMPO 0819/0823 2SM -SHSN OVC009
     FM090000 34012KT 5SM -SN BR OVC011
     FM090600 32014G21KT 6SM -SN BKN015
     FM091200 33015G25KT P6SM OVC020 PROB30 0912/0915 6SM -SHSN=

USA.gov is the U.S. government's official web portal to all federal, state and local government web resources and services.